Pagrindinis puslapis
METAR-TAF:

METAR-TAF

Oro uostai :

Dėras, Vengrija

platuma: 47-37-28N, ilguma: 017-48-49E, Aukštis: 129 m

Dabartinis oras

Ataskaita buvo paskelbta 40 minutes, ne 23:15 UTC
Vėjas 4 kt iš Rytų
Temperatūra 1°C
Drėgmė 64%
Slėgis 1032 hPa
Matomumas 10 km arba daugiau
nėra debesų žemiau 1500 m ir nėra kamuolinių lietaus debesų

METAR: LHPR 072315Z AUTO 09004KT CAVOK 01/M05 Q1032

Laikas: 01:55 (23:55 UTC)

Prognozė

Ataskaita buvo paskelbta 6 valandos ir 40 minutes, ne 17:15 UTC
Prognozė galioja nuo 07 metu 18 UTC su 08 metu 03 UTC
Vėjas 5 kt iš Pietų/Pietryčių
Matomumas 10 km arba daugiau
nėra debesų žemiau 1500 m ir nėra kamuolinių lietaus debesų

TAF: LHPR 071715Z 0718/0803 16005KT CAVOK

Orai ataskaitas ir orų prognozės (METAR, TAF).

turimą stotys yra geltonos ir raudonos taškus žemėlapyje.

Perkelti pele per norėdami pamatyti stoties vardą.

Tada spustelėkite, norėdami matyti oro stebėjimo ir prognozės.

Norėdami pakeisti žemėlapį: spustelėkite ant žalios mygtukų su juodo kryžiaus žemyn,; žalią mygtuką su brūkšneliu, jei norite nutolinti; arba žalių rodyklių gretimoms žemėlapius.


METAR-TAF: